Time;durP1;ratioP1;P1;durP2;ratioP2;P2;SDS_P1;SDS_P2;PMS_P1;PMS_P2;Temp;Humidity;BMP_temperature;BMP_pressure;BME280_temperature;BME280_humidity;BME280_pressure;Samples;Min_cycle;Max_cycle;Signal;HPM_P1;HPM_P2
2021/06/10 00:01:31;;;;;;;;;;;24.70;49.30;;;;;;1591904;73;1936;-69
2021/06/10 00:03:33;;;;;;;;;;;24.70;49.20;;;;;;1592005;73;787;-70
2021/06/10 00:05:35;;;;;;;;;;;24.70;49.30;;;;;;1595808;73;779;-68
2021/06/10 00:07:37;;;;;;;;;;;24.70;49.40;;;;;;1593036;74;799;-67
2021/06/10 00:09:39;;;;;;;;;;;24.70;49.40;;;;;;1596700;73;745;-68
2021/06/10 00:11:41;;;;;;;;;;;24.70;49.40;;;;;;1592692;74;1129;-70
2021/06/10 00:13:42;;;;;;;;;;;24.70;49.40;;;;;;1585402;73;892;-68
2021/06/10 00:15:44;;;;;;;;;;;24.80;49.30;;;;;;1581043;73;928;-65
2021/06/10 00:17:46;;;;;;;;;;;24.70;49.40;;;;;;1591139;73;744;-68
2021/06/10 00:19:48;;;;;;;;;;;24.70;49.30;;;;;;1588398;74;744;-69
2021/06/10 00:21:50;;;;;;;;;;;24.80;49.30;;;;;;1596162;73;1945;-67
2021/06/10 00:23:52;;;;;;;;;;;24.80;49.30;;;;;;1591043;74;753;-67
2021/06/10 00:25:54;;;;;;;;;;;24.70;49.30;;;;;;1595587;73;778;-67
2021/06/10 00:27:56;;;;;;;;;;;24.80;49.40;;;;;;1594165;73;805;-64
2021/06/10 00:29:58;;;;;;;;;;;24.80;49.30;;;;;;1595275;73;728;-66
2021/06/10 00:32:00;;;;;;;;;;;24.80;49.30;;;;;;1579506;73;1133;-69
2021/06/10 00:34:02;;;;;;;;;;;24.80;49.30;;;;;;1595779;73;775;-66
2021/06/10 00:36:04;;;;;;;;;;;24.80;49.50;;;;;;1591480;73;730;-67
2021/06/10 00:38:06;;;;;;;;;;;24.70;49.40;;;;;;1592985;73;766;-66
2021/06/10 00:40:08;;;;;;;;;;;24.70;49.40;;;;;;1590411;73;800;-67
2021/06/10 00:42:10;;;;;;;;;;;24.80;49.40;;;;;;1591554;73;1951;-67
2021/06/10 00:44:12;;;;;;;;;;;24.80;49.40;;;;;;1595593;73;943;-66
2021/06/10 00:46:14;;;;;;;;;;;24.80;49.40;;;;;;1595522;73;817;-68
2021/06/10 00:48:16;;;;;;;;;;;24.80;49.40;;;;;;1598960;73;770;-65
2021/06/10 00:50:19;;;;;;;;;;;24.80;49.30;;;;;;1598722;73;794;-67
2021/06/10 00:52:21;;;;;;;;;;;24.80;49.30;;;;;;1593540;73;1911;-67
2021/06/10 00:54:23;;;;;;;;;;;24.80;49.40;;;;;;1602324;73;816;-67
2021/06/10 00:56:26;;;;;;;;;;;24.80;49.40;;;;;;1594928;73;746;-67
2021/06/10 00:58:28;;;;;;;;;;;24.80;49.20;;;;;;1602516;73;790;-67
2021/06/10 01:00:30;;;;;;;;;;;24.80;49.30;;;;;;1602793;73;780;-66
2021/06/10 01:02:32;;;;;;;;;;;24.80;49.40;;;;;;1602163;73;1948;-66
2021/06/10 01:04:34;;;;;;;;;;;24.80;49.40;;;;;;1592344;73;802;-66
2021/06/10 01:06:50;;;;;;;;;;;24.80;49.40;;;;;;1598054;73;755;-67
2021/06/10 01:09:03;;;;;;;;;;;24.80;49.30;;;;;;1601933;73;1629;-67
2021/06/10 01:11:16;;;;;;;;;;;24.80;49.20;;;;;;1601794;73;1901;-66
2021/06/10 01:13:22;;;;;;;;;;;24.70;49.30;;;;;;1601390;73;1693;-67
2021/06/10 01:15:25;;;;;;;;;;;24.70;49.20;;;;;;1593138;73;2149;-66
2021/06/10 01:17:27;;;;;;;;;;;24.70;49.40;;;;;;1595837;73;681;-66
2021/06/10 01:19:36;;;;;;;;;;;24.70;49.40;;;;;;1589913;73;789;-66
2021/06/10 01:21:38;;;;;;;;;;;24.80;49.60;;;;;;1598387;73;1135;-68
2021/06/10 01:23:48;;;;;;;;;;;24.80;49.90;;;;;;1599995;73;1921;-67
2021/06/10 01:26:04;;;;;;;;;;;24.80;49.80;;;;;;1594530;73;1837;-67
2021/06/10 01:28:13;;;;;;;;;;;24.80;49.50;;;;;;1597035;73;756;-68
2021/06/10 01:30:16;;;;;;;;;;;24.70;49.30;;;;;;1601238;73;770;-68
2021/06/10 01:32:18;;;;;;;;;;;24.70;49.40;;;;;;1601949;73;1187;-68
2021/06/10 01:34:20;;;;;;;;;;;24.70;49.40;;;;;;1601855;73;750;-67
2021/06/10 01:36:23;;;;;;;;;;;24.80;49.40;;;;;;1590741;73;762;-67
2021/06/10 01:38:25;;;;;;;;;;;24.80;49.30;;;;;;1601744;73;781;-66
2021/06/10 01:40:27;;;;;;;;;;;24.80;49.50;;;;;;1595631;73;754;-66
2021/06/10 01:42:29;;;;;;;;;;;24.80;49.90;;;;;;1602273;73;1953;-66
2021/06/10 01:44:31;;;;;;;;;;;24.80;49.70;;;;;;1588973;73;806;-66
2021/06/10 01:46:33;;;;;;;;;;;24.80;49.80;;;;;;1580599;73;710;-66
2021/06/10 01:48:35;;;;;;;;;;;24.80;49.70;;;;;;1601610;73;747;-66
2021/06/10 01:50:36;;;;;;;;;;;24.80;49.90;;;;;;1591566;73;771;-67
2021/06/10 01:52:39;;;;;;;;;;;24.80;49.60;;;;;;1594059;73;1175;-66
2021/06/10 01:54:41;;;;;;;;;;;24.80;50.20;;;;;;1598659;73;805;-66
2021/06/10 01:56:43;;;;;;;;;;;24.80;49.90;;;;;;1597249;73;930;-66
2021/06/10 01:58:45;;;;;;;;;;;24.80;50.10;;;;;;1602955;73;782;-67
2021/06/10 02:00:48;;;;;;;;;;;24.80;50.30;;;;;;1598155;73;846;-67
2021/06/10 02:02:50;;;;;;;;;;;24.90;50.30;;;;;;1598872;73;1970;-67
2021/06/10 02:04:52;;;;;;;;;;;24.80;50.20;;;;;;1600571;73;762;-66
2021/06/10 02:06:55;;;;;;;;;;;24.80;50.20;;;;;;1594586;73;831;-65
2021/06/10 02:08:57;;;;;;;;;;;24.80;50.10;;;;;;1597635;73;777;-64
2021/06/10 02:10:58;;;;;;;;;;;24.90;50.00;;;;;;1598797;73;763;-66
2021/06/10 02:13:00;;;;;;;;;;;24.90;50.20;;;;;;1593231;74;1137;-66
2021/06/10 02:15:04;;;;;;;;;;;24.80;50.10;;;;;;1589439;73;782;-66
2021/06/10 02:17:06;;;;;;;;;;;24.80;50.00;;;;;;1601215;73;799;-66
2021/06/10 02:19:08;;;;;;;;;;;24.90;50.10;;;;;;1594831;73;711;-67
2021/06/10 02:21:10;;;;;;;;;;;24.80;50.10;;;;;;1589673;73;801;-68
2021/06/10 02:23:12;;;;;;;;;;;24.80;50.00;;;;;;1590407;73;1948;-67
2021/06/10 02:25:14;;;;;;;;;;;24.80;49.80;;;;;;1602686;73;739;-65
2021/06/10 02:27:16;;;;;;;;;;;24.80;49.80;;;;;;1592030;73;786;-66
2021/06/10 02:29:18;;;;;;;;;;;24.80;49.70;;;;;;1590162;73;756;-67
2021/06/10 02:31:19;;;;;;;;;;;24.80;49.80;;;;;;1599411;73;789;-66
2021/06/10 02:33:21;;;;;;;;;;;24.80;49.60;;;;;;1600329;73;1147;-66
2021/06/10 02:35:23;;;;;;;;;;;24.90;49.70;;;;;;1600250;73;807;-66
2021/06/10 02:37:25;;;;;;;;;;;24.80;49.70;;;;;;1603338;73;764;-66
2021/06/10 02:39:27;;;;;;;;;;;24.80;49.80;;;;;;1598476;73;910;-66
2021/06/10 02:41:29;;;;;;;;;;;24.80;49.70;;;;;;1592408;73;1128;-68
2021/06/10 02:43:31;;;;;;;;;;;24.80;49.40;;;;;;1601641;73;1928;-67
2021/06/10 02:45:34;;;;;;;;;;;24.80;49.40;;;;;;1600336;73;821;-67
2021/06/10 02:47:36;;;;;;;;;;;24.80;49.40;;;;;;1601095;73;747;-66
2021/06/10 02:49:38;;;;;;;;;;;24.80;49.40;;;;;;1599815;73;744;-64
2021/06/10 02:51:40;;;;;;;;;;;24.80;49.30;;;;;;1589842;73;1140;-66
2021/06/10 02:53:43;;;;;;;;;;;24.80;49.40;;;;;;1596137;73;748;-66
2021/06/10 02:55:45;;;;;;;;;;;24.80;49.60;;;;;;1593966;73;805;-66
2021/06/10 02:57:51;;;;;;;;;;;24.80;49.30;;;;;;1600031;73;585;-65
2021/06/10 02:59:53;;;;;;;;;;;24.70;49.50;;;;;;1600337;73;780;-66
2021/06/10 03:01:55;;;;;;;;;;;24.70;49.40;;;;;;1598586;73;1148;-66
2021/06/10 03:03:57;;;;;;;;;;;24.70;49.20;;;;;;1566444;74;1938;-65
2021/06/10 03:05:59;;;;;;;;;;;24.70;49.10;;;;;;1542171;75;784;-65
2021/06/10 03:08:01;;;;;;;;;;;24.80;49.20;;;;;;1560133;76;707;-64
2021/06/10 03:10:04;;;;;;;;;;;24.70;49.20;;;;;;1556351;76;797;-66
2021/06/10 03:12:06;;;;;;;;;;;24.70;49.10;;;;;;1558139;75;1166;-65
2021/06/10 03:14:10;;;;;;;;;;;24.70;49.20;;;;;;1549123;76;726;-64
2021/06/10 03:16:12;;;;;;;;;;;24.70;49.20;;;;;;1561458;76;820;-64
2021/06/10 03:18:14;;;;;;;;;;;24.80;49.20;;;;;;1560924;76;753;-65
2021/06/10 03:20:16;;;;;;;;;;;24.70;49.20;;;;;;1556867;75;742;-64
2021/06/10 03:22:18;;;;;;;;;;;24.70;49.20;;;;;;1563259;75;1188;-65
2021/06/10 03:24:20;;;;;;;;;;;24.70;49.20;;;;;;1563729;76;1936;-65
2021/06/10 03:26:22;;;;;;;;;;;24.70;49.20;;;;;;1564247;75;763;-67
2021/06/10 03:28:24;;;;;;;;;;;24.70;49.30;;;;;;1562644;75;789;-65
2021/06/10 03:30:25;;;;;;;;;;;24.80;49.20;;;;;;1550221;75;825;-63
2021/06/10 03:32:27;;;;;;;;;;;24.80;49.20;;;;;;1559204;75;1099;-63
2021/06/10 03:34:29;;;;;;;;;;;24.70;49.20;;;;;;1561421;75;866;-64
2021/06/10 03:36:31;;;;;;;;;;;24.80;49.10;;;;;;1563461;75;818;-64
2021/06/10 03:38:33;;;;;;;;;;;24.70;49.20;;;;;;1560240;75;836;-63
2021/06/10 03:40:35;;;;;;;;;;;24.70;49.20;;;;;;1562418;76;824;-64
2021/06/10 03:42:37;;;;;;;;;;;24.70;49.20;;;;;;1559895;75;1127;-65
2021/06/10 03:44:39;;;;;;;;;;;24.60;49.10;;;;;;1556199;75;813;-64
2021/06/10 03:46:41;;;;;;;;;;;24.60;49.20;;;;;;1553781;75;699;-64
2021/06/10 03:48:43;;;;;;;;;;;24.60;49.20;;;;;;1563341;76;802;-64
2021/06/10 03:50:45;;;;;;;;;;;24.60;49.20;;;;;;1557043;76;796;-65
2021/06/10 03:52:46;;;;;;;;;;;24.60;49.20;;;;;;1562562;76;1168;-61
2021/06/10 03:54:48;;;;;;;;;;;24.60;49.30;;;;;;1557415;75;789;-64
2021/06/10 03:56:50;;;;;;;;;;;24.50;49.30;;;;;;1556780;75;795;-64
2021/06/10 03:58:52;;;;;;;;;;;24.50;49.40;;;;;;1555087;75;767;-64
2021/06/10 04:00:54;;;;;;;;;;;24.60;49.40;;;;;;1560167;75;883;-64
2021/06/10 04:03:01;;;;;;;;;;;24.50;49.40;;;;;;1562242;75;1958;-66
2021/06/10 04:05:04;;;;;;;;;;;24.60;49.40;;;;;;1558493;75;743;-65
2021/06/10 04:07:06;;;;;;;;;;;24.60;49.50;;;;;;1561006;75;815;-65
2021/06/10 04:09:08;;;;;;;;;;;24.60;49.50;;;;;;1562042;76;812;-62
2021/06/10 04:11:10;;;;;;;;;;;24.50;49.50;;;;;;1562356;75;773;-65
2021/06/10 04:13:11;;;;;;;;;;;24.50;49.60;;;;;;1559242;74;1158;-65
2021/06/10 04:15:14;;;;;;;;;;;24.50;49.60;;;;;;1561633;75;752;-65
2021/06/10 04:17:16;;;;;;;;;;;24.60;49.50;;;;;;1554531;76;892;-62
2021/06/10 04:19:18;;;;;;;;;;;24.50;49.60;;;;;;1562451;74;742;-64
2021/06/10 04:21:20;;;;;;;;;;;24.60;49.60;;;;;;1556495;76;775;-64
2021/06/10 04:23:22;;;;;;;;;;;24.50;49.50;;;;;;1561865;74;1948;-64
2021/06/10 04:25:23;;;;;;;;;;;24.50;49.50;;;;;;1563102;74;724;-67
2021/06/10 04:27:25;;;;;;;;;;;24.50;49.40;;;;;;1561589;75;837;-64
2021/06/10 04:29:27;;;;;;;;;;;24.50;49.40;;;;;;1558744;75;789;-67
2021/06/10 04:31:29;;;;;;;;;;;24.50;49.40;;;;;;1559729;75;1158;-66
2021/06/10 04:33:31;;;;;;;;;;;24.50;49.30;;;;;;1559176;75;788;-64
2021/06/10 04:35:33;;;;;;;;;;;24.40;49.20;;;;;;1562496;75;713;-65
2021/06/10 04:37:35;;;;;;;;;;;24.50;49.30;;;;;;1553971;75;745;-65
2021/06/10 04:39:37;;;;;;;;;;;24.50;49.40;;;;;;1551336;75;754;-68
2021/06/10 04:41:39;;;;;;;;;;;24.50;49.40;;;;;;1557501;75;1170;-66
2021/06/10 04:43:41;;;;;;;;;;;24.50;49.40;;;;;;1587168;72;221850;-58
2021/06/10 04:45:43;;;;;;;;;;;24.50;49.50;;;;;;1607597;72;780;-56
2021/06/10 04:47:44;;;;;;;;;;;24.50;49.40;;;;;;1603793;73;797;-57
2021/06/10 04:49:46;;;;;;;;;;;24.50;49.50;;;;;;1591237;72;789;-60
2021/06/10 04:51:48;;;;;;;;;;;24.50;49.80;;;;;;1614132;71;1194;-59
2021/06/10 04:53:50;;;;;;;;;;;24.50;49.80;;;;;;1630928;71;763;-56
2021/06/10 04:55:52;;;;;;;;;;;24.50;49.70;;;;;;1617303;71;745;-60
2021/06/10 04:57:54;;;;;;;;;;;24.50;49.50;;;;;;1622845;72;760;-60
2021/06/10 04:59:56;;;;;;;;;;;24.50;49.60;;;;;;1620021;72;767;-60
2021/06/10 05:01:58;;;;;;;;;;;24.60;49.40;;;;;;1621603;72;1082;-59
2021/06/10 05:04:00;;;;;;;;;;;24.60;49.30;;;;;;1622405;72;1921;-56
2021/06/10 05:06:02;;;;;;;;;;;24.50;49.30;;;;;;1617310;71;716;-59
2021/06/10 05:08:04;;;;;;;;;;;24.60;49.20;;;;;;1623137;71;791;-59
2021/06/10 05:10:06;;;;;;;;;;;24.60;49.20;;;;;;1625493;72;791;-59
2021/06/10 05:12:08;;;;;;;;;;;24.50;49.20;;;;;;1616581;71;1113;-56
2021/06/10 05:14:10;;;;;;;;;;;24.60;49.10;;;;;;1612000;72;747;-57
2021/06/10 05:16:12;;;;;;;;;;;24.60;49.10;;;;;;1628251;71;747;-57
2021/06/10 05:18:14;;;;;;;;;;;24.50;49.20;;;;;;1617796;71;858;-59
2021/06/10 05:20:16;;;;;;;;;;;24.60;49.20;;;;;;1620309;72;792;-59
2021/06/10 05:22:18;;;;;;;;;;;24.60;49.20;;;;;;1621562;72;1226;-59
2021/06/10 05:24:23;;;;;;;;;;;24.50;49.10;;;;;;1626727;71;1937;-60
2021/06/10 05:26:24;;;;;;;;;;;24.60;49.20;;;;;;1626514;72;1754;-60
2021/06/10 05:28:33;;;;;;;;;;;24.50;49.30;;;;;;1624234;72;765;-61
2021/06/10 05:30:29;;;;;;;;;;;24.50;49.20;;;;;;1623484;71;1654;-57
2021/06/10 05:32:31;;;;;;;;;;;24.50;49.50;;;;;;1626761;72;809;-59
2021/06/10 05:34:33;;;;;;;;;;;24.50;49.50;;;;;;1628742;71;782;-61
2021/06/10 05:36:35;;;;;;;;;;;24.50;49.40;;;;;;1626944;72;710;-61
2021/06/10 05:38:37;;;;;;;;;;;24.50;49.30;;;;;;1626644;71;715;-58
2021/06/10 05:40:39;;;;;;;;;;;24.50;49.10;;;;;;1612150;72;1172;-59
2021/06/10 05:42:40;;;;;;;;;;;24.50;48.90;;;;;;1620805;71;805;-56
2021/06/10 05:44:43;;;;;;;;;;;24.50;48.90;;;;;;1617483;72;1960;-58
2021/06/10 05:46:45;;;;;;;;;;;24.40;48.70;;;;;;1605071;72;750;-59
2021/06/10 05:48:47;;;;;;;;;;;24.40;48.90;;;;;;1611307;71;717;-58
2021/06/10 05:50:48;;;;;;;;;;;24.40;48.90;;;;;;1631102;72;1168;-58
2021/06/10 05:52:50;;;;;;;;;;;24.40;49.10;;;;;;1620458;72;676;-59
2021/06/10 05:54:52;;;;;;;;;;;24.40;49.60;;;;;;1623893;71;788;-59
2021/06/10 05:56:55;;;;;;;;;;;24.40;49.60;;;;;;1617736;72;723;-60
2021/06/10 05:58:57;;;;;;;;;;;24.30;49.80;;;;;;1624079;71;913;-60
2021/06/10 06:00:59;;;;;;;;;;;24.40;49.70;;;;;;1615982;71;1125;-60
2021/06/10 06:03:03;;;;;;;;;;;24.40;50.00;;;;;;1632357;72;733;-59
2021/06/10 06:05:04;;;;;;;;;;;24.30;50.20;;;;;;1616533;71;1936;-58
2021/06/10 06:07:06;;;;;;;;;;;24.30;50.30;;;;;;1623128;71;842;-60
2021/06/10 06:09:08;;;;;;;;;;;24.40;50.00;;;;;;1625931;71;772;-59
2021/06/10 06:11:10;;;;;;;;;;;24.40;50.00;;;;;;1626171;71;1072;-58
2021/06/10 06:13:12;;;;;;;;;;;24.30;49.70;;;;;;1620121;72;671;-58
2021/06/10 06:15:14;;;;;;;;;;;24.30;49.60;;;;;;1620229;72;813;-59
2021/06/10 06:17:17;;;;;;;;;;;24.40;49.70;;;;;;1618292;72;724;-56
2021/06/10 06:19:19;;;;;;;;;;;24.40;49.50;;;;;;1624708;73;778;-58
2021/06/10 06:21:21;;;;;;;;;;;24.30;49.40;;;;;;1626685;72;1180;-59
2021/06/10 06:23:23;;;;;;;;;;;24.40;49.50;;;;;;1617427;71;726;-57
2021/06/10 06:25:24;;;;;;;;;;;24.40;49.50;;;;;;1609535;72;1941;-60
2021/06/10 06:27:26;;;;;;;;;;;24.40;49.50;;;;;;1611948;71;701;-61
2021/06/10 06:29:28;;;;;;;;;;;24.40;49.50;;;;;;1627722;72;781;-59
2021/06/10 06:31:30;;;;;;;;;;;24.40;49.40;;;;;;1626964;71;1115;-60
2021/06/10 06:33:32;;;;;;;;;;;24.40;49.40;;;;;;1633953;71;826;-59
2021/06/10 06:35:34;;;;;;;;;;;24.40;49.30;;;;;;1613531;71;773;-59
2021/06/10 06:37:36;;;;;;;;;;;24.50;49.50;;;;;;1619817;72;772;-60
2021/06/10 06:39:38;;;;;;;;;;;24.50;49.40;;;;;;1636389;72;747;-58
2021/06/10 06:41:40;;;;;;;;;;;24.40;49.30;;;;;;1628685;71;1116;-57
2021/06/10 06:43:41;;;;;;;;;;;24.50;49.20;;;;;;1611029;71;784;-62
2021/06/10 06:45:43;;;;;;;;;;;24.50;49.00;;;;;;1613245;72;1932;-61
2021/06/10 06:47:45;;;;;;;;;;;24.50;49.00;;;;;;1635725;72;780;-61
2021/06/10 06:49:47;;;;;;;;;;;24.50;48.90;;;;;;1620967;71;795;-60
2021/06/10 06:51:49;;;;;;;;;;;24.30;48.70;;;;;;1626141;72;1158;-59
2021/06/10 06:53:51;;;;;;;;;;;24.20;49.10;;;;;;1630706;72;779;-60
2021/06/10 06:55:53;;;;;;;;;;;24.00;49.40;;;;;;1618606;71;851;-59
2021/06/10 06:57:55;;;;;;;;;;;24.00;49.70;;;;;;1622496;73;744;-56
2021/06/10 06:59:56;;;;;;;;;;;24.00;49.80;;;;;;1613607;72;819;-60
2021/06/10 07:01:58;;;;;;;;;;;23.90;50.40;;;;;;1620175;72;1166;-61
2021/06/10 07:04:00;;;;;;;;;;;24.10;50.40;;;;;;1615116;71;1936;-57
2021/06/10 07:06:02;;;;;;;;;;;24.10;50.30;;;;;;1623813;71;725;-59
2021/06/10 07:08:04;;;;;;;;;;;24.20;50.20;;;;;;1628269;71;769;-60
2021/06/10 07:10:06;;;;;;;;;;;24.20;49.90;;;;;;1631129;72;679;-59
2021/06/10 07:12:08;;;;;;;;;;;24.30;50.00;;;;;;1621399;71;1111;-60
2021/06/10 07:14:10;;;;;;;;;;;24.40;49.60;;;;;;1620935;71;803;-59
2021/06/10 07:16:12;;;;;;;;;;;24.40;49.60;;;;;;1623103;71;558;-61
2021/06/10 07:18:14;;;;;;;;;;;24.50;49.60;;;;;;1629926;72;710;-58
2021/06/10 07:20:16;;;;;;;;;;;24.60;49.40;;;;;;1625195;71;720;-58
2021/06/10 07:22:18;;;;;;;;;;;24.60;49.40;;;;;;1608304;71;1147;-56
2021/06/10 07:24:20;;;;;;;;;;;24.40;49.20;;;;;;1620753;72;1948;-59
2021/06/10 07:26:22;;;;;;;;;;;24.30;49.50;;;;;;1613943;72;770;-59
2021/06/10 07:28:25;;;;;;;;;;;24.30;49.70;;;;;;1614910;71;798;-59
2021/06/10 07:30:27;;;;;;;;;;;24.30;49.70;;;;;;1626822;72;1140;-59
2021/06/10 07:32:29;;;;;;;;;;;24.50;49.60;;;;;;1619274;72;762;-59
2021/06/10 07:34:31;;;;;;;;;;;24.50;50.10;;;;;;1624903;72;790;-56
2021/06/10 07:36:33;;;;;;;;;;;24.50;49.90;;;;;;1622918;72;720;-60
2021/06/10 07:38:35;;;;;;;;;;;24.50;49.60;;;;;;1624511;71;858;-57
2021/06/10 07:40:38;;;;;;;;;;;24.60;49.60;;;;;;1623261;71;1121;-59
2021/06/10 07:42:39;;;;;;;;;;;24.60;49.30;;;;;;1624212;71;757;-58
2021/06/10 07:44:41;;;;;;;;;;;24.60;49.20;;;;;;1619663;71;1927;-57
2021/06/10 07:46:43;;;;;;;;;;;24.70;49.40;;;;;;1637462;71;698;-60
2021/06/10 07:48:45;;;;;;;;;;;24.80;49.40;;;;;;1622541;71;725;-60
2021/06/10 07:50:47;;;;;;;;;;;24.80;49.40;;;;;;1623453;71;1173;-59
2021/06/10 07:52:49;;;;;;;;;;;24.90;49.30;;;;;;1619544;72;735;-60
2021/06/10 07:54:51;;;;;;;;;;;25.00;49.00;;;;;;1630187;71;781;-59
2021/06/10 07:56:53;;;;;;;;;;;25.00;48.90;;;;;;1623597;71;798;-59
2021/06/10 07:58:55;;;;;;;;;;;25.00;48.80;;;;;;1630670;72;745;-59
2021/06/10 08:00:57;;;;;;;;;;;25.00;48.80;;;;;;1626305;72;1108;-59
2021/06/10 08:02:59;;;;;;;;;;;25.00;48.80;;;;;;1619713;71;782;-58
2021/06/10 08:05:01;;;;;;;;;;;25.00;48.70;;;;;;1623189;71;1913;-56
2021/06/10 08:07:03;;;;;;;;;;;24.80;48.80;;;;;;1613809;72;747;-57
2021/06/10 08:09:05;;;;;;;;;;;24.90;49.00;;;;;;1630943;72;589;-58
2021/06/10 08:11:09;;;;;;;;;;;25.00;48.80;;;;;;1616978;72;1181;-58
2021/06/10 08:13:11;;;;;;;;;;;25.00;48.70;;;;;;1614362;71;1489;-61
2021/06/10 08:15:13;;;;;;;;;;;25.00;48.60;;;;;;1615554;71;898;-59
2021/06/10 08:17:15;;;;;;;;;;;24.90;48.60;;;;;;1614165;71;925;-57
2021/06/10 08:19:17;;;;;;;;;;;25.00;48.60;;;;;;1617379;71;726;-56
2021/06/10 08:21:19;;;;;;;;;;;24.90;48.60;;;;;;1624226;72;1118;-61
2021/06/10 08:23:20;;;;;;;;;;;24.90;48.50;;;;;;1618721;71;735;-59
2021/06/10 08:25:22;;;;;;;;;;;25.00;48.50;;;;;;1627814;72;1943;-60
2021/06/10 08:27:24;;;;;;;;;;;25.00;48.40;;;;;;1624697;72;904;-58
2021/06/10 08:29:28;;;;;;;;;;;25.10;48.20;;;;;;1614777;71;959;-58
2021/06/10 08:31:30;;;;;;;;;;;25.10;48.00;;;;;;1620598;71;1126;-60
2021/06/10 08:33:33;;;;;;;;;;;25.00;48.20;;;;;;1629513;72;773;-61
2021/06/10 08:35:35;;;;;;;;;;;24.80;48.50;;;;;;1628449;72;833;-60
2021/06/10 08:37:37;;;;;;;;;;;25.00;48.50;;;;;;1616504;71;810;-59
2021/06/10 08:39:39;;;;;;;;;;;24.90;48.40;;;;;;1615071;71;809;-57
2021/06/10 08:41:41;;;;;;;;;;;24.90;48.20;;;;;;1616351;71;1117;-59
2021/06/10 08:43:43;;;;;;;;;;;24.90;48.30;;;;;;1622396;71;748;-58
2021/06/10 08:45:47;;;;;;;;;;;25.00;48.20;;;;;;1621518;71;1936;-59
2021/06/10 08:47:49;;;;;;;;;;;25.00;48.10;;;;;;1622327;71;1357;-60
2021/06/10 08:49:51;;;;;;;;;;;25.00;48.20;;;;;;1617066;71;837;-59
2021/06/10 08:51:52;;;;;;;;;;;25.00;48.30;;;;;;1626020;72;1134;-59
2021/06/10 08:53:56;;;;;;;;;;;24.90;48.20;;;;;;1623805;71;781;-60
2021/06/10 08:55:58;;;;;;;;;;;24.80;48.50;;;;;;1613230;72;1164;-58
2021/06/10 08:58:00;;;;;;;;;;;24.80;48.60;;;;;;1620179;71;745;-61
2021/06/10 09:00:03;;;;;;;;;;;24.80;48.50;;;;;;1614226;71;748;-61
2021/06/10 09:02:05;;;;;;;;;;;24.80;48.40;;;;;;1622501;71;1146;-59
2021/06/10 09:04:07;;;;;;;;;;;24.80;48.50;;;;;;1624888;71;730;-56
2021/06/10 09:06:10;;;;;;;;;;;24.70;48.60;;;;;;1621467;71;1927;-59
2021/06/10 09:08:12;;;;;;;;;;;24.70;48.60;;;;;;1620013;72;751;-59
2021/06/10 09:10:14;;;;;;;;;;;24.70;48.50;;;;;;1620082;71;800;-57
2021/06/10 09:12:20;;;;;;;;;;;24.60;48.40;;;;;;1613472;71;1077;-60
2021/06/10 09:14:20;;;;;;;;;;;24.70;48.50;;;;;;1623471;71;1767;-58
2021/06/10 09:16:23;;;;;;;;;;;24.70;48.50;;;;;;1627034;72;774;-60
2021/06/10 09:18:31;;;;;;;;;;;24.60;48.50;;;;;;1620281;72;1927;-56
2021/06/10 09:20:44;;;;;;;;;;;24.70;48.60;;;;;;1613436;71;1136;-59
2021/06/10 09:22:43;;;;;;;;;;;24.60;48.50;;;;;;1621984;71;1655;-60
2021/06/10 09:24:45;;;;;;;;;;;24.60;48.50;;;;;;1623910;71;1933;-59
2021/06/10 09:26:50;;;;;;;;;;;24.50;48.70;;;;;;1617705;71;770;-59
2021/06/10 09:28:54;;;;;;;;;;;24.50;48.80;;;;;;1630400;71;1888;-58
2021/06/10 09:30:55;;;;;;;;;;;24.70;48.90;;;;;;1616410;71;1099;-60
2021/06/10 09:32:57;;;;;;;;;;;24.60;48.80;;;;;;1617824;71;745;-60
2021/06/10 09:35:01;;;;;;;;;;;24.80;48.70;;;;;;1622503;71;800;-61
2021/06/10 09:37:03;;;;;;;;;;;24.80;48.40;;;;;;1625382;71;696;-59
2021/06/10 09:39:05;;;;;;;;;;;24.80;48.30;;;;;;1622257;71;721;-59
2021/06/10 09:41:07;;;;;;;;;;;24.80;48.30;;;;;;1620476;71;1140;-57
2021/06/10 09:43:10;;;;;;;;;;;24.80;48.00;;;;;;1619564;71;756;-60
2021/06/10 09:45:13;;;;;;;;;;;24.80;48.20;;;;;;1620296;71;1900;-60
2021/06/10 09:47:16;;;;;;;;;;;24.80;48.40;;;;;;1623977;71;828;-58
2021/06/10 09:49:18;;;;;;;;;;;24.80;48.40;;;;;;1631871;71;779;-61
2021/06/10 09:51:27;;;;;;;;;;;24.80;48.00;;;;;;1621197;72;1158;-60
2021/06/10 09:53:28;;;;;;;;;;;24.80;47.90;;;;;;1623263;71;1215;-59
2021/06/10 09:55:31;;;;;;;;;;;24.80;48.10;;;;;;1627805;71;2162;-59
2021/06/10 09:57:33;;;;;;;;;;;24.80;47.90;;;;;;1633707;71;774;-61
2021/06/10 09:59:42;;;;;;;;;;;24.80;48.00;;;;;;1631975;71;727;-60
2021/06/10 10:01:44;;;;;;;;;;;24.70;47.60;;;;;;1627685;71;1188;-58
2021/06/10 10:03:47;;;;;;;;;;;24.80;47.60;;;;;;1619364;71;739;-60
2021/06/10 10:05:49;;;;;;;;;;;24.70;47.80;;;;;;1632635;71;1918;-59
2021/06/10 10:07:52;;;;;;;;;;;24.70;48.10;;;;;;1626679;71;815;-58
2021/06/10 10:09:56;;;;;;;;;;;24.70;48.40;;;;;;1626589;72;712;-61
2021/06/10 10:11:58;;;;;;;;;;;24.80;48.40;;;;;;1618014;71;1135;-59
2021/06/10 10:14:00;;;;;;;;;;;24.70;48.60;;;;;;1612347;72;797;-58
2021/06/10 10:16:02;;;;;;;;;;;24.70;48.70;;;;;;1629313;71;747;-60
2021/06/10 10:18:03;;;;;;;;;;;24.70;48.90;;;;;;1620461;71;754;-59
2021/06/10 10:20:06;;;;;;;;;;;24.70;48.80;;;;;;1631375;71;666;-59
2021/06/10 10:22:11;;;;;;;;;;;24.70;48.90;;;;;;1612781;71;1147;-61
2021/06/10 10:24:13;;;;;;;;;;;24.80;48.90;;;;;;1620758;71;1629;-61
2021/06/10 10:26:15;;;;;;;;;;;24.70;48.50;;;;;;1627509;72;1940;-57
2021/06/10 10:28:17;;;;;;;;;;;24.70;48.40;;;;;;1614704;71;676;-61
2021/06/10 10:30:23;;;;;;;;;;;24.80;48.40;;;;;;1621084;71;653;-59
2021/06/10 10:32:25;;;;;;;;;;;24.70;48.40;;;;;;1636851;71;622;-59
2021/06/10 10:34:29;;;;;;;;;;;24.80;48.40;;;;;;1622173;71;649;-58
2021/06/10 10:36:33;;;;;;;;;;;24.80;48.40;;;;;;1625355;72;741;-59
2021/06/10 10:38:35;;;;;;;;;;;24.80;48.50;;;;;;1614190;71;834;-56
2021/06/10 10:40:40;;;;;;;;;;;24.70;48.60;;;;;;1626588;72;1140;-59
2021/06/10 10:42:40;;;;;;;;;;;24.70;48.50;;;;;;1608308;71;1840;-59
2021/06/10 10:44:45;;;;;;;;;;;24.80;48.30;;;;;;1555333;72;222359;-65
2021/06/10 10:46:47;;;;;;;;;;;24.60;48.30;;;;;;1531790;76;2018;-65
2021/06/10 10:48:50;;;;;;;;;;;24.40;48.40;;;;;;1553363;74;1826;-67
2021/06/10 10:50:53;;;;;;;;;;;24.50;48.80;;;;;;1570248;74;764;-66
2021/06/10 10:52:56;;;;;;;;;;;24.60;48.60;;;;;;1565496;74;789;-66
2021/06/10 10:55:12;;;;;;;;;;;24.60;48.60;;;;;;1560058;75;1217;-65
2021/06/10 10:57:31;;;;;;;;;;;24.70;48.70;;;;;;1557493;75;1098;-66
2021/06/10 10:59:37;;;;;;;;;;;24.70;48.90;;;;;;1556777;75;935;-67
2021/06/10 11:01:39;;;;;;;;;;;24.70;48.80;;;;;;1557376;75;1420;-68
2021/06/10 11:03:43;;;;;;;;;;;24.70;48.80;;;;;;1554992;74;1176;-67
2021/06/10 11:05:45;;;;;;;;;;;24.70;48.60;;;;;;1552785;75;1907;-67
2021/06/10 11:07:53;;;;;;;;;;;24.70;48.60;;;;;;1561096;75;806;-65
2021/06/10 11:09:54;;;;;;;;;;;24.80;48.50;;;;;;1559063;75;759;-65
2021/06/10 11:12:10;;;;;;;;;;;24.70;48.60;;;;;;1564224;75;808;-68
2021/06/10 11:14:06;;;;;;;;;;;24.80;48.60;;;;;;1553657;75;1502;-67
2021/06/10 11:16:08;;;;;;;;;;;24.80;48.40;;;;;;1530867;76;1348;-67
2021/06/10 11:18:10;;;;;;;;;;;24.80;48.50;;;;;;1557132;75;774;-67
2021/06/10 11:20:17;;;;;;;;;;;24.90;48.50;;;;;;1557776;75;807;-65
2021/06/10 11:22:26;;;;;;;;;;;24.90;48.50;;;;;;1551457;75;1694;-65
2021/06/10 11:24:28;;;;;;;;;;;24.90;48.40;;;;;;1557585;74;1072;-68
2021/06/10 11:26:29;;;;;;;;;;;24.90;48.50;;;;;;1556364;75;1933;-66
2021/06/10 11:28:37;;;;;;;;;;;24.80;48.40;;;;;;1527354;76;1270;-66
2021/06/10 11:30:40;;;;;;;;;;;24.90;48.40;;;;;;1557185;75;785;-67
2021/06/10 11:32:59;;;;;;;;;;;24.90;48.40;;;;;;1556191;75;798;-67
2021/06/10 11:35:01;;;;;;;;;;;24.90;48.40;;;;;;1560832;75;818;-67
2021/06/10 11:37:02;;;;;;;;;;;25.00;48.40;;;;;;1557135;75;843;-67
2021/06/10 11:39:04;;;;;;;;;;;24.90;48.40;;;;;;1552841;75;780;-65
2021/06/10 11:41:07;;;;;;;;;;;24.90;48.40;;;;;;1526199;77;1010;-64
2021/06/10 11:43:09;;;;;;;;;;;24.90;48.40;;;;;;1561931;73;1117;-65
2021/06/10 11:45:12;;;;;;;;;;;25.00;48.40;;;;;;1556207;75;785;-67
2021/06/10 11:47:20;;;;;;;;;;;24.90;48.40;;;;;;1563325;75;1941;-66
2021/06/10 11:49:24;;;;;;;;;;;24.80;47.30;;;;;;1554090;74;734;-67
2021/06/10 11:51:33;;;;;;;;;;;24.80;46.70;;;;;;1547337;75;1840;-66
2021/06/10 11:53:35;;;;;;;;;;;24.60;47.30;;;;;;1558718;75;1160;-66
2021/06/10 11:55:37;;;;;;;;;;;24.60;47.20;;;;;;1556356;75;842;-66
2021/06/10 11:57:39;;;;;;;;;;;24.50;47.30;;;;;;1566145;75;809;-65
2021/06/10 11:59:41;;;;;;;;;;;24.50;47.30;;;;;;1552982;75;728;-66
2021/06/10 12:02:01;;;;;;;;;;;24.60;47.30;;;;;;1558252;76;749;-64
2021/06/10 12:04:09;;;;;;;;;;;24.60;47.30;;;;;;1557457;76;1204;-66
2021/06/10 12:06:12;;;;;;;;;;;24.50;46.50;;;;;;1555412;74;1933;-66
2021/06/10 12:08:14;;;;;;;;;;;24.40;46.40;;;;;;1555420;75;821;-63
2021/06/10 12:10:18;;;;;;;;;;;24.30;45.80;;;;;;1565316;74;923;-64
2021/06/10 12:12:44;;;;;;;;;;;24.20;46.50;;;;;;1566580;74;701;-64